Time;durP1;ratioP1;P1;durP2;ratioP2;P2;SDS_P1;SDS_P2;PMS_P1;PMS_P2;Temp;Humidity;BMP_temperature;BMP_pressure;BME280_temperature;BME280_humidity;BME280_pressure;Samples;Min_cycle;Max_cycle;Signal;HPM_P1;HPM_P2
2024/03/06 17:00:01;;;;;;;;;;;0.20;99.90;;;;;;5073239;28;19927;-95
2024/03/06 17:05:45;;;;;;;;;;;0.10;99.90;;;;;;5639106;23;19933;-96
2024/03/06 17:16:54;;;;;;;;;;;0.40;99.90;;;;;;5261027;23;20379;-94
2024/03/06 17:19:25;;;;;;;;;;;0.50;99.90;;;;;;4956902;28;19915;-96
2024/03/06 17:21:51;;;;;;;;;;;0.60;99.90;;;;;;4955981;28;19957;-93
2024/03/06 17:24:32;;;;;;;;;;;0.60;99.90;;;;;;5361996;23;19926;-94
2024/03/06 17:26:57;;;;;;;;;;;0.70;99.90;;;;;;4954621;29;19915;-92
2024/03/06 17:31:37;;;;;;;;;;;0.70;99.90;;;;;;5167063;27;19911;-94
2024/03/06 17:34:03;;;;;;;;;;;0.70;99.90;;;;;;5132006;27;19912;-93
2024/03/06 17:36:29;;;;;;;;;;;0.80;99.90;;;;;;5132415;27;19908;-95
2024/03/06 17:38:54;;;;;;;;;;;0.70;99.90;;;;;;5133316;28;19911;-94
2024/03/06 17:41:20;;;;;;;;;;;0.80;99.90;;;;;;5132963;28;19911;-93
2024/03/06 18:13:03;;;;;;;;;;;0.00;99.90;;;;;;5145836;27;20283;-94
2024/03/06 18:15:28;;;;;;;;;;;-0.10;99.90;;;;;;5112607;28;20003;-96
2024/03/06 18:18:23;;;;;;;;;;;-0.10;99.90;;;;;;5124725;28;19970;-96
2024/03/06 18:26:13;;;;;;;;;;;0.10;99.90;;;;;;5184718;23;19927;-96
2024/03/06 18:31:47;;;;;;;;;;;0.20;99.90;;;;;;5695954;23;19926;-94
2024/03/06 18:42:17;;;;;;;;;;;0.40;99.90;;;;;;5832873;23;19927;-95
2024/03/06 18:44:42;;;;;;;;;;;0.40;99.90;;;;;;4975248;28;19915;-94
2024/03/06 18:47:09;;;;;;;;;;;0.40;99.90;;;;;;4975598;28;20013;-94
2024/03/06 18:49:35;;;;;;;;;;;0.50;99.90;;;;;;4974269;28;19911;-94
2024/03/06 19:01:13;;;;;;;;;;;0.60;99.90;;;;;;5071207;23;19918;-96
2024/03/06 19:06:15;;;;;;;;;;;0.60;99.90;;;;;;5534242;23;19978;-94
2024/03/06 19:08:43;;;;;;;;;;;0.60;99.90;;;;;;5016533;28;19945;-94
2024/03/06 19:11:09;;;;;;;;;;;0.60;99.90;;;;;;5015573;28;19917;-96
2024/03/06 19:13:35;;;;;;;;;;;0.60;99.90;;;;;;5155120;23;19926;-93
2024/03/06 19:16:03;;;;;;;;;;;0.60;99.90;;;;;;5661027;23;19933;-94
2024/03/06 19:18:46;;;;;;;;;;;0.60;99.50;;;;;;4975763;28;19969;-96
2024/03/06 19:21:12;;;;;;;;;;;0.60;99.50;;;;;;4937279;29;20041;-95
2024/03/06 19:23:43;;;;;;;;;;;0.60;99.90;;;;;;4928491;29;20383;-95
2024/03/06 19:26:23;;;;;;;;;;;0.60;99.90;;;;;;4927343;29;19915;-96
2024/03/06 19:28:51;;;;;;;;;;;0.60;99.90;;;;;;5035748;23;19979;-96
2024/03/06 19:31:18;;;;;;;;;;;0.60;99.90;;;;;;4999188;28;20285;-95
2024/03/06 19:33:43;;;;;;;;;;;0.70;99.90;;;;;;4980999;28;20009;-94
2024/03/06 19:36:09;;;;;;;;;;;0.70;99.90;;;;;;4980935;28;19951;-94
2024/03/06 19:38:34;;;;;;;;;;;0.70;99.90;;;;;;4985247;28;19917;-95
2024/03/06 19:41:00;;;;;;;;;;;0.70;99.90;;;;;;4999377;28;20024;-93
2024/03/06 19:43:26;;;;;;;;;;;0.70;99.40;;;;;;5001997;28;19909;-95
2024/03/06 21:11:25;;;;;;;;;;;0.90;94.40;;;;;;6222750;22;2093256;-95
2024/03/06 21:29:52;;;;;;;;;;;0.60;92.90;;;;;;6249119;22;19910;-95
2024/03/06 21:32:18;;;;;;;;;;;0.60;92.50;;;;;;6255734;23;19908;-95
